Time;durP1;ratioP1;P1;durP2;ratioP2;P2;SDS_P1;SDS_P2;PMS_P1;PMS_P2;Temp;Humidity;BMP_temperature;BMP_pressure;BME280_temperature;BME280_humidity;BME280_pressure;Samples;Min_cycle;Max_cycle;Signal;HPM_P1;HPM_P2
2022/12/23 00:02:06;;;;;;;3.73;3.03;;;;;;;;;;5083671;27;88820;-54
2022/12/23 00:04:35;;;;;;;3.23;2.93;;;;;;;;;;5083814;27;87058;-54
2022/12/23 00:07:04;;;;;;;4.83;3.57;;;;;;;;;;5077836;27;86963;-54
2022/12/23 00:09:33;;;;;;;8.80;4.43;;;;;;;;;;5063599;27;89035;-54
2022/12/23 00:15:05;;;;;;;5.83;3.60;;;;;;;;;;5070876;27;87055;-54
2022/12/23 00:17:34;;;;;;;6.93;2.97;;;;;;;;;;5069519;27;86350;-54
2022/12/23 00:20:03;;;;;;;5.83;3.03;;;;;;;;;;5064652;27;89155;-54
2022/12/23 00:25:18;;;;;;;4.63;3.33;;;;;;;;;;5062257;27;87963;-54
2022/12/23 00:28:00;;;;;;;4.30;3.00;;;;;;;;;;5065041;27;87375;-54
2022/12/23 00:30:28;;;;;;;5.33;3.37;;;;;;;;;;5063139;27;89972;-54
2022/12/23 00:32:57;;;;;;;5.57;3.67;;;;;;;;;;5064644;27;88401;-54
2022/12/23 00:35:25;;;;;;;4.30;3.10;;;;;;;;;;5071966;27;87053;-54
2022/12/23 00:37:55;;;;;;;4.33;3.70;;;;;;;;;;5063114;27;88693;-54
2022/12/23 00:43:09;;;;;;;4.03;3.20;;;;;;;;;;5064462;27;86891;-54
2022/12/23 00:45:37;;;;;;;4.00;2.50;;;;;;;;;;5076546;27;87144;-54
2022/12/23 00:50:52;;;;;;;5.57;2.33;;;;;;;;;;5064210;27;89902;-54
2022/12/23 00:53:22;;;;;;;3.17;2.33;;;;;;;;;;5079143;27;87638;-54
2022/12/23 00:55:50;;;;;;;2.97;2.50;;;;;;;;;;5081837;27;86758;-54
2022/12/23 00:58:19;;;;;;;4.70;2.40;;;;;;;;;;5060920;27;86962;-54
2022/12/23 01:06:19;;;;;;;3.10;2.60;;;;;;;;;;5083619;27;87076;-54
2022/12/23 01:08:49;;;;;;;4.90;2.60;;;;;;;;;;5082469;27;86203;-54
2022/12/23 01:11:17;;;;;;;4.03;2.27;;;;;;;;;;5080929;27;88276;-54
2022/12/23 01:13:45;;;;;;;2.97;2.30;;;;;;;;;;5081359;27;87953;-54
2022/12/23 01:16:14;;;;;;;4.13;2.07;;;;;;;;;;5068698;27;88021;-54
2022/12/23 01:18:45;;;;;;;4.33;2.93;;;;;;;;;;5079305;27;87040;-54
2022/12/23 01:21:13;;;;;;;2.93;2.47;;;;;;;;;;5082710;27;89197;-54
2022/12/23 01:23:41;;;;;;;2.57;2.00;;;;;;;;;;5077888;27;87803;-54
2022/12/23 01:26:11;;;;;;;2.40;1.93;;;;;;;;;;5042790;27;86836;-54
2022/12/23 01:28:39;;;;;;;3.43;2.00;;;;;;;;;;5041850;28;87022;-54
2022/12/23 01:31:08;;;;;;;3.53;1.90;;;;;;;;;;5056812;27;88149;-54
2022/12/23 01:33:36;;;;;;;2.93;1.50;;;;;;;;;;5079297;27;88803;-56
2022/12/23 01:36:05;;;;;;;4.07;2.33;;;;;;;;;;5068023;27;86899;-54
2022/12/23 01:38:33;;;;;;;2.90;2.33;;;;;;;;;;5081093;27;87082;-54
2022/12/23 01:41:02;;;;;;;2.50;1.83;;;;;;;;;;5072173;27;90147;-54
2022/12/23 01:43:44;;;;;;;2.30;1.90;;;;;;;;;;5065767;27;88735;-54
2022/12/23 01:46:12;;;;;;;2.93;1.57;;;;;;;;;;5082503;27;86815;-56
2022/12/23 01:48:40;;;;;;;3.23;1.93;;;;;;;;;;5064588;27;86890;-55
2022/12/23 01:51:09;;;;;;;2.83;1.90;;;;;;;;;;5041163;28;89114;-54
2022/12/23 01:53:38;;;;;;;2.53;1.97;;;;;;;;;;5062685;27;87750;-54
2022/12/23 01:56:07;;;;;;;2.47;1.70;;;;;;;;;;5061915;27;87644;-54
2022/12/23 01:58:36;;;;;;;2.17;1.90;;;;;;;;;;5075204;27;86246;-54
2022/12/23 02:03:52;;;;;;;3.67;2.30;;;;;;;;;;5081537;27;88829;-54
2022/12/23 02:09:19;;;;;;;3.70;2.00;;;;;;;;;;5079111;27;87326;-54
2022/12/23 02:11:58;;;;;;;3.10;1.53;;;;;;;;;;5076631;27;88264;-55
2022/12/23 02:17:18;;;;;;;2.83;1.77;;;;;;;;;;5064132;27;87053;-55
2022/12/23 02:20:03;;;;;;;2.43;1.53;;;;;;;;;;5082296;27;86714;-55
2022/12/23 02:22:36;;;;;;;2.23;1.80;;;;;;;;;;5061801;27;88049;-57
2022/12/23 02:25:18;;;;;;;2.80;1.50;;;;;;;;;;5063370;27;88791;-55
2022/12/23 02:27:49;;;;;;;1.93;1.27;;;;;;;;;;5077641;27;87367;-55
2022/12/23 02:30:32;;;;;;;2.13;1.90;;;;;;;;;;5085302;27;86986;-55
2022/12/23 02:33:19;;;;;;;1.27;1.17;;;;;;;;;;5083363;27;91091;-55
2022/12/23 02:35:50;;;;;;;3.40;1.30;;;;;;;;;;5067874;27;89709;-54
2022/12/23 02:38:21;;;;;;;1.40;1.03;;;;;;;;;;5049853;27;86991;-54
2022/12/23 02:40:52;;;;;;;1.47;1.00;;;;;;;;;;5069733;27;86996;-54
2022/12/23 02:43:22;;;;;;;1.67;1.50;;;;;;;;;;5085129;27;88297;-54
2022/12/23 02:45:52;;;;;;;2.20;1.60;;;;;;;;;;5071304;27;88728;-54
2022/12/23 02:48:22;;;;;;;1.37;1.17;;;;;;;;;;5078057;27;86923;-55
2022/12/23 02:50:52;;;;;;;1.33;1.20;;;;;;;;;;5084740;27;86298;-54
2022/12/23 02:53:22;;;;;;;1.83;1.27;;;;;;;;;;5082273;27;88938;-54
2022/12/23 02:55:50;;;;;;;3.13;1.10;;;;;;;;;;5085622;27;88951;-54
2022/12/23 02:58:18;;;;;;;1.80;1.57;;;;;;;;;;5084639;27;87841;-54
2022/12/23 03:00:47;;;;;;;3.03;1.23;;;;;;;;;;5085162;27;87123;-55
2022/12/23 03:03:15;;;;;;;3.20;1.33;;;;;;;;;;5082220;27;88016;-54
2022/12/23 03:05:44;;;;;;;1.23;1.13;;;;;;;;;;5078175;27;87103;-54
2022/12/23 03:08:14;;;;;;;3.67;1.50;;;;;;;;;;5082328;27;87154;-53
2022/12/23 03:10:46;;;;;;;1.33;1.00;;;;;;;;;;5064205;27;87048;-54
2022/12/23 03:13:17;;;;;;;2.80;1.23;;;;;;;;;;5065749;27;87908;-54
2022/12/23 03:15:46;;;;;;;1.23;0.90;;;;;;;;;;5076412;27;87687;-54
2022/12/23 03:18:17;;;;;;;1.40;1.10;;;;;;;;;;5068845;27;86990;-54
2022/12/23 03:20:48;;;;;;;1.33;1.20;;;;;;;;;;5085418;27;87025;-54
2022/12/23 03:23:19;;;;;;;1.23;1.13;;;;;;;;;;5067397;27;89249;-53
2022/12/23 03:25:50;;;;;;;2.10;1.10;;;;;;;;;;5043820;28;91133;-54
2022/12/23 03:28:18;;;;;;;1.87;1.07;;;;;;;;;;5080812;27;86980;-54
2022/12/23 03:30:48;;;;;;;2.10;1.33;;;;;;;;;;5084693;27;87038;-54
2022/12/23 03:33:17;;;;;;;2.20;1.20;;;;;;;;;;5064782;27;89143;-54
2022/12/23 03:35:46;;;;;;;1.70;0.90;;;;;;;;;;5078819;27;88903;-54
2022/12/23 03:38:14;;;;;;;1.40;1.20;;;;;;;;;;5067500;27;87330;-54
2022/12/23 03:40:45;;;;;;;2.17;1.30;;;;;;;;;;5082676;27;86187;-53
2022/12/23 03:43:17;;;;;;;0.80;0.80;;;;;;;;;;5082601;27;89124;-54
2022/12/23 03:45:45;;;;;;;0.97;0.93;;;;;;;;;;5072877;27;87819;-54
2022/12/23 03:48:14;;;;;;;2.33;1.30;;;;;;;;;;5063362;27;88047;-58
2022/12/23 03:50:43;;;;;;;1.47;0.83;;;;;;;;;;5083865;27;87091;-55
2022/12/23 03:53:11;;;;;;;1.37;0.93;;;;;;;;;;5083095;27;88075;-56
2022/12/23 03:55:41;;;;;;;0.87;0.87;;;;;;;;;;5072520;27;88868;-54
2022/12/23 03:58:12;;;;;;;1.37;0.93;;;;;;;;;;5064204;27;86860;-56
2022/12/23 04:00:42;;;;;;;1.50;0.87;;;;;;;;;;5048098;27;87373;-54
2022/12/23 04:03:11;;;;;;;2.50;0.90;;;;;;;;;;5063768;27;87021;-55
2022/12/23 04:05:39;;;;;;;3.90;0.70;;;;;;;;;;5064103;27;87805;-55
2022/12/23 04:08:10;;;;;;;3.43;1.17;;;;;;;;;;5067173;27;86976;-54
2022/12/23 04:10:39;;;;;;;0.93;0.83;;;;;;;;;;5078492;27;87138;-54
2022/12/23 04:13:07;;;;;;;2.60;0.77;;;;;;;;;;5064337;27;90225;-54
2022/12/23 04:15:39;;;;;;;3.10;1.53;;;;;;;;;;5071864;27;89861;-54
2022/12/23 04:18:07;;;;;;;1.00;0.87;;;;;;;;;;5069531;27;87109;-54
2022/12/23 04:20:36;;;;;;;0.60;0.60;;;;;;;;;;5079349;27;88786;-54
2022/12/23 04:23:04;;;;;;;2.63;1.03;;;;;;;;;;5067689;27;89092;-56
2022/12/23 04:25:32;;;;;;;1.47;0.90;;;;;;;;;;5075919;27;87571;-56
2022/12/23 04:28:01;;;;;;;1.00;0.87;;;;;;;;;;5075198;27;86892;-56
2022/12/23 04:30:29;;;;;;;1.87;0.90;;;;;;;;;;5084307;27;86351;-57
2022/12/23 04:33:03;;;;;;;1.23;1.13;;;;;;;;;;5066619;27;88053;-56
2022/12/23 04:35:31;;;;;;;0.80;0.70;;;;;;;;;;5082331;27;87790;-56
2022/12/23 04:38:00;;;;;;;0.97;0.73;;;;;;;;;;5080168;27;87823;-55
2022/12/23 04:40:28;;;;;;;0.83;0.80;;;;;;;;;;5063380;27;86879;-56
2022/12/23 04:42:56;;;;;;;1.17;0.90;;;;;;;;;;5063770;27;87865;-56
2022/12/23 04:45:24;;;;;;;1.00;0.90;;;;;;;;;;5079137;27;88828;-56
2022/12/23 04:47:54;;;;;;;1.20;0.87;;;;;;;;;;5049680;27;87170;-56
2022/12/23 04:50:24;;;;;;;1.63;1.00;;;;;;;;;;5071840;27;87119;-56
2022/12/23 04:52:52;;;;;;;1.07;0.90;;;;;;;;;;5071159;27;87188;-56
2022/12/23 04:55:20;;;;;;;0.90;0.90;;;;;;;;;;5072587;27;86444;-56
2022/12/23 04:57:48;;;;;;;1.00;0.80;;;;;;;;;;5072062;27;88888;-56
2022/12/23 05:00:17;;;;;;;1.20;1.00;;;;;;;;;;5062380;27;87697;-56
2022/12/23 05:02:46;;;;;;;1.13;0.60;;;;;;;;;;5073671;27;90201;-56
2022/12/23 05:05:14;;;;;;;0.80;0.60;;;;;;;;;;5082618;27;89832;-56
2022/12/23 05:07:44;;;;;;;0.83;0.80;;;;;;;;;;5083355;27;87101;-56
2022/12/23 05:10:12;;;;;;;1.40;0.87;;;;;;;;;;5083447;27;86983;-56
2022/12/23 05:12:40;;;;;;;0.90;0.90;;;;;;;;;;5082892;27;87898;-56
2022/12/23 05:15:09;;;;;;;0.93;0.70;;;;;;;;;;5081105;27;88858;-56
2022/12/23 05:17:37;;;;;;;1.70;0.90;;;;;;;;;;5074616;27;86735;-56
2022/12/23 05:20:06;;;;;;;1.07;0.97;;;;;;;;;;5082337;27;86273;-56
2022/12/23 05:22:34;;;;;;;1.00;0.90;;;;;;;;;;5052171;27;89149;-56
2022/12/23 05:25:04;;;;;;;1.43;0.60;;;;;;;;;;5073838;27;88886;-56
2022/12/23 05:27:33;;;;;;;1.53;0.93;;;;;;;;;;5062405;27;87973;-56
2022/12/23 05:30:01;;;;;;;1.27;0.73;;;;;;;;;;5063238;27;86933;-56
2022/12/23 05:32:29;;;;;;;0.60;0.60;;;;;;;;;;5061852;27;89209;-57
2022/12/23 05:34:57;;;;;;;0.47;0.47;;;;;;;;;;5062307;27;87822;-56
2022/12/23 05:37:26;;;;;;;0.60;0.60;;;;;;;;;;5062384;27;86985;-56
2022/12/23 05:39:54;;;;;;;0.40;0.40;;;;;;;;;;5069942;27;86957;-56
2022/12/23 05:42:24;;;;;;;0.60;0.60;;;;;;;;;;5080157;27;88076;-56
2022/12/23 05:44:52;;;;;;;0.77;0.77;;;;;;;;;;5079258;27;87745;-56
2022/12/23 05:47:20;;;;;;;2.13;0.73;;;;;;;;;;5075435;27;87018;-56
2022/12/23 05:49:49;;;;;;;0.97;0.77;;;;;;;;;;5080730;27;86964;-56
2022/12/23 05:52:17;;;;;;;0.60;0.60;;;;;;;;;;5063478;27;90092;-56
2022/12/23 05:54:46;;;;;;;0.50;0.50;;;;;;;;;;5082154;27;88890;-56
2022/12/23 05:57:14;;;;;;;1.27;0.70;;;;;;;;;;5080182;27;87102;-56
2022/12/23 05:59:44;;;;;;;0.47;0.47;;;;;;;;;;5072112;27;88585;-57
2022/12/23 06:02:12;;;;;;;0.40;0.40;;;;;;;;;;5071018;27;89232;-56
2022/12/23 06:04:41;;;;;;;0.80;0.60;;;;;;;;;;5061811;27;87887;-56
2022/12/23 06:07:09;;;;;;;0.70;0.70;;;;;;;;;;5063364;27;87126;-56
2022/12/23 06:09:37;;;;;;;0.60;0.60;;;;;;;;;;5083355;27;86298;-56
2022/12/23 06:12:06;;;;;;;0.70;0.70;;;;;;;;;;5082372;27;89082;-56
2022/12/23 06:14:34;;;;;;;0.83;0.70;;;;;;;;;;5080141;27;87805;-56
2022/12/23 06:17:04;;;;;;;0.93;0.50;;;;;;;;;;5077617;27;88836;-56
2022/12/23 06:19:32;;;;;;;1.97;0.70;;;;;;;;;;5061935;27;86998;-56
2022/12/23 06:22:01;;;;;;;0.47;0.47;;;;;;;;;;5061489;27;87750;-56
2022/12/23 06:24:29;;;;;;;0.50;0.50;;;;;;;;;;5061654;27;87308;-56
2022/12/23 06:26:57;;;;;;;0.90;0.67;;;;;;;;;;5069843;27;87051;-56
2022/12/23 06:29:26;;;;;;;0.73;0.73;;;;;;;;;;5082048;27;87541;-56
2022/12/23 06:31:54;;;;;;;0.77;0.77;;;;;;;;;;5075007;27;88196;-56
2022/12/23 06:34:24;;;;;;;0.60;0.50;;;;;;;;;;5063264;27;86496;-56
2022/12/23 06:36:52;;;;;;;0.77;0.60;;;;;;;;;;5081743;27;87528;-56
2022/12/23 06:39:20;;;;;;;0.60;0.60;;;;;;;;;;5080570;27;87070;-56
2022/12/23 06:41:49;;;;;;;0.40;0.40;;;;;;;;;;5081250;27;89024;-56
2022/12/23 06:44:17;;;;;;;0.40;0.40;;;;;;;;;;5079527;27;89907;-56
2022/12/23 06:46:45;;;;;;;0.83;0.60;;;;;;;;;;5075339;27;88860;-55
2022/12/23 06:49:14;;;;;;;0.53;0.53;;;;;;;;;;5069921;27;86963;-56
2022/12/23 06:51:44;;;;;;;0.70;0.70;;;;;;;;;;5068796;27;88290;-56
2022/12/23 06:54:12;;;;;;;0.57;0.57;;;;;;;;;;5077679;27;88749;-56
2022/12/23 06:56:40;;;;;;;0.70;0.53;;;;;;;;;;5068284;27;86958;-56
2022/12/23 06:59:09;;;;;;;0.53;0.53;;;;;;;;;;5079563;27;86233;-56
2022/12/23 07:01:37;;;;;;;0.50;0.50;;;;;;;;;;5081759;27;89179;-56
2022/12/23 07:04:06;;;;;;;0.50;0.50;;;;;;;;;;5078918;27;87683;-56
2022/12/23 07:06:34;;;;;;;0.40;0.40;;;;;;;;;;5075549;27;87949;-56
2022/12/23 07:09:05;;;;;;;0.70;0.60;;;;;;;;;;5061106;27;87057;-56
2022/12/23 07:11:33;;;;;;;0.73;0.73;;;;;;;;;;5061191;27;89334;-57
2022/12/23 07:14:01;;;;;;;0.60;0.60;;;;;;;;;;5062802;27;88923;-56
2022/12/23 07:16:30;;;;;;;0.67;0.57;;;;;;;;;;5065553;27;86942;-56
2022/12/23 07:18:58;;;;;;;0.70;0.70;;;;;;;;;;5068065;27;86958;-56
2022/12/23 07:21:26;;;;;;;1.53;0.70;;;;;;;;;;5065657;27;90989;-55
2022/12/23 07:23:57;;;;;;;1.33;0.60;;;;;;;;;;5065039;27;87896;-56
2022/12/23 07:26:26;;;;;;;0.40;0.40;;;;;;;;;;5069134;27;87010;-56
2022/12/23 07:28:55;;;;;;;0.60;0.60;;;;;;;;;;5075927;27;87001;-56
2022/12/23 07:31:23;;;;;;;0.97;0.80;;;;;;;;;;5063699;27;90080;-56
2022/12/23 07:33:51;;;;;;;1.53;0.90;;;;;;;;;;5065603;27;88668;-56
2022/12/23 07:36:20;;;;;;;0.50;0.50;;;;;;;;;;5064185;27;86847;-56
2022/12/23 07:38:50;;;;;;;0.37;0.37;;;;;;;;;;5064293;27;87991;-56
2022/12/23 07:41:18;;;;;;;0.60;0.60;;;;;;;;;;5064967;27;86914;-55
2022/12/23 07:43:48;;;;;;;0.60;0.57;;;;;;;;;;5064378;27;88934;-56
2022/12/23 07:46:17;;;;;;;0.80;0.77;;;;;;;;;;5082069;27;86978;-56
2022/12/23 07:48:45;;;;;;;0.80;0.80;;;;;;;;;;5066947;27;86170;-56
2022/12/23 07:51:14;;;;;;;0.50;0.50;;;;;;;;;;5073868;27;89147;-56
2022/12/23 07:53:42;;;;;;;0.50;0.50;;;;;;;;;;5069675;27;88841;-56
2022/12/23 07:56:10;;;;;;;0.53;0.53;;;;;;;;;;5064754;27;87972;-56
2022/12/23 07:58:39;;;;;;;1.10;0.67;;;;;;;;;;5072153;27;87072;-55
2022/12/23 08:01:08;;;;;;;0.70;0.70;;;;;;;;;;5081497;27;89253;-56
2022/12/23 08:03:37;;;;;;;1.80;0.80;;;;;;;;;;5083812;27;87748;-56
2022/12/23 08:06:06;;;;;;;0.53;0.53;;;;;;;;;;5061942;27;87047;-56
2022/12/23 08:08:34;;;;;;;1.23;0.83;;;;;;;;;;5042374;27;86944;-56
2022/12/23 08:11:03;;;;;;;0.83;0.77;;;;;;;;;;5060935;27;89034;-56
2022/12/23 08:13:32;;;;;;;0.93;0.60;;;;;;;;;;5067148;27;87983;-56
2022/12/23 08:16:00;;;;;;;0.50;0.50;;;;;;;;;;5057827;27;88534;-56
2022/12/23 08:18:31;;;;;;;1.10;0.60;;;;;;;;;;5052182;27;87061;-55
2022/12/23 08:21:00;;;;;;;0.47;0.47;;;;;;;;;;5057079;27;90091;-56
2022/12/23 08:23:29;;;;;;;0.40;0.40;;;;;;;;;;5060660;27;88801;-56
2022/12/23 08:26:00;;;;;;;0.70;0.70;;;;;;;;;;5061212;27;87262;-55
2022/12/23 08:28:29;;;;;;;0.70;0.70;;;;;;;;;;5061527;27;87064;-57
2022/12/23 08:31:03;;;;;;;0.70;0.70;;;;;;;;;;5061148;27;88248;-56
2022/12/23 08:33:33;;;;;;;0.40;0.40;;;;;;;;;;5061183;27;87867;-57
2022/12/23 08:36:02;;;;;;;0.57;0.57;;;;;;;;;;5063249;27;87009;-56
2022/12/23 08:38:30;;;;;;;0.50;0.50;;;;;;;;;;5063679;27;86206;-56
2022/12/23 08:40:58;;;;;;;3.10;0.50;;;;;;;;;;5063081;27;87063;-56
2022/12/23 08:43:27;;;;;;;0.67;0.60;;;;;;;;;;5062830;27;89007;-56
2022/12/23 08:46:03;;;;;;;0.67;0.57;;;;;;;;;;5062638;27;87843;-56
2022/12/23 08:48:33;;;;;;;1.10;0.50;;;;;;;;;;5063390;27;86978;-54
2022/12/23 08:51:02;;;;;;;0.50;0.50;;;;;;;;;;5062696;27;87791;-54
2022/12/23 08:53:31;;;;;;;1.77;0.70;;;;;;;;;;5062663;27;88003;-53
2022/12/23 08:56:01;;;;;;;0.33;0.33;;;;;;;;;;5063100;27;87035;-54
2022/12/23 08:58:30;;;;;;;0.90;0.60;;;;;;;;;;5062808;27;86929;-54
2022/12/23 09:00:58;;;;;;;0.30;0.30;;;;;;;;;;5062907;27;87039;-54
2022/12/23 09:03:26;;;;;;;0.40;0.40;;;;;;;;;;5063548;27;88783;-54
2022/12/23 09:05:56;;;;;;;0.30;0.30;;;;;;;;;;5062959;27;87099;-53
2022/12/23 09:08:25;;;;;;;0.57;0.50;;;;;;;;;;5063000;27;86944;-54
2022/12/23 09:10:53;;;;;;;1.03;0.63;;;;;;;;;;5061861;27;90192;-55
2022/12/23 09:13:21;;;;;;;0.30;0.30;;;;;;;;;;5062351;27;88683;-54
2022/12/23 09:16:01;;;;;;;1.23;0.90;;;;;;;;;;5063028;27;87131;-54
2022/12/23 09:18:30;;;;;;;0.47;0.40;;;;;;;;;;5062675;27;86981;-54
2022/12/23 09:21:00;;;;;;;0.23;0.23;;;;;;;;;;5062079;27;89014;-54
2022/12/23 09:23:28;;;;;;;0.60;0.60;;;;;;;;;;5061749;27;89022;-54
2022/12/23 09:25:57;;;;;;;0.63;0.50;;;;;;;;;;5062448;27;87003;-55
2022/12/23 09:28:25;;;;;;;0.53;0.53;;;;;;;;;;5062791;27;86365;-55
2022/12/23 09:30:53;;;;;;;2.33;0.50;;;;;;;;;;5062514;27;88115;-54
2022/12/23 09:33:22;;;;;;;0.50;0.50;;;;;;;;;;5062244;27;87775;-55
2022/12/23 09:35:50;;;;;;;0.57;0.50;;;;;;;;;;5061814;27;88060;-54
2022/12/23 09:38:20;;;;;;;0.83;0.30;;;;;;;;;;5060946;27;87026;-54
2022/12/23 09:40:48;;;;;;;1.37;0.63;;;;;;;;;;5062141;27;87050;-54
2022/12/23 09:43:18;;;;;;;0.63;0.53;;;;;;;;;;5062062;27;87862;-54
2022/12/23 09:45:51;;;;;;;0.70;0.70;;;;;;;;;;5062254;27;86964;-54
2022/12/23 09:48:20;;;;;;;0.50;0.50;;;;;;;;;;5062395;27;87016;-54
2022/12/23 09:50:48;;;;;;;0.50;0.50;;;;;;;;;;5061820;27;88074;-55
2022/12/23 09:53:17;;;;;;;0.50;0.50;;;;;;;;;;5062022;27;88997;-54
2022/12/23 09:55:49;;;;;;;0.80;0.60;;;;;;;;;;5062378;27;87105;-54
2022/12/23 09:58:21;;;;;;;0.20;0.20;;;;;;;;;;5062186;27;86901;-54
2022/12/23 10:00:54;;;;;;;0.47;0.30;;;;;;;;;;5061418;27;90029;-54
2022/12/23 10:03:24;;;;;;;2.70;0.60;;;;;;;;;;5062021;27;90173;-55
2022/12/23 10:05:56;;;;;;;0.40;0.40;;;;;;;;;;5062004;27;86998;-54
2022/12/23 10:08:27;;;;;;;0.50;0.50;;;;;;;;;;5061561;27;86969;-54
2022/12/23 10:10:57;;;;;;;0.57;0.40;;;;;;;;;;5061691;27;89123;-54
2022/12/23 10:13:26;;;;;;;0.73;0.70;;;;;;;;;;5061797;27;89063;-54
2022/12/23 10:15:55;;;;;;;0.93;0.47;;;;;;;;;;5061714;27;86820;-54
2022/12/23 10:18:24;;;;;;;1.50;0.60;;;;;;;;;;5061916;27;86255;-54
2022/12/23 10:20:53;;;;;;;0.60;0.50;;;;;;;;;;5061692;27;89289;-54
2022/12/23 10:23:24;;;;;;;1.33;0.73;;;;;;;;;;5061442;27;88945;-55
2022/12/23 10:25:53;;;;;;;1.90;0.40;;;;;;;;;;5061465;27;87782;-54
2022/12/23 10:28:23;;;;;;;0.63;0.50;;;;;;;;;;5061641;27;86999;-54
2022/12/23 10:31:01;;;;;;;0.87;0.50;;;;;;;;;;5061195;27;90692;-54
2022/12/23 10:33:54;;;;;;;0.47;0.40;;;;;;;;;;5060973;27;87564;-54
2022/12/23 10:36:24;;;;;;;1.37;0.60;;;;;;;;;;5061259;27;86886;-55
2022/12/23 10:38:54;;;;;;;1.00;0.60;;;;;;;;;;5061620;27;86910;-55
2022/12/23 10:41:26;;;;;;;1.20;0.60;;;;;;;;;;5061208;27;88288;-55
2022/12/23 10:44:00;;;;;;;0.67;0.60;;;;;;;;;;5061878;27;87805;-55
2022/12/23 10:46:30;;;;;;;0.83;0.47;;;;;;;;;;5062222;27;87147;-55
2022/12/23 10:49:00;;;;;;;1.00;0.70;;;;;;;;;;5063625;27;86976;-55
2022/12/23 10:51:29;;;;;;;0.63;0.53;;;;;;;;;;5064557;27;90199;-55
2022/12/23 10:53:59;;;;;;;0.60;0.60;;;;;;;;;;5065245;27;88705;-55
2022/12/23 10:56:29;;;;;;;0.30;0.30;;;;;;;;;;5065443;27;87037;-55
2022/12/23 10:58:59;;;;;;;0.80;0.80;;;;;;;;;;5064845;27;87027;-55
2022/12/23 11:01:27;;;;;;;0.40;0.40;;;;;;;;;;5064150;27;87977;-55
2022/12/23 11:03:58;;;;;;;0.43;0.30;;;;;;;;;;5064365;27;89032;-55
2022/12/23 11:06:26;;;;;;;0.67;0.40;;;;;;;;;;5065166;27;87059;-55
2022/12/23 11:09:04;;;;;;;0.50;0.50;;;;;;;;;;5065224;27;86291;-55
2022/12/23 11:11:51;;;;;;;0.70;0.70;;;;;;;;;;5063804;27;89292;-55
2022/12/23 11:14:31;;;;;;;0.50;0.50;;;;;;;;;;5064159;27;87783;-55
2022/12/23 11:16:59;;;;;;;1.47;0.60;;;;;;;;;;5064405;27;87868;-56
2022/12/23 11:19:27;;;;;;;2.10;0.63;;;;;;;;;;5064859;27;86929;-54
2022/12/23 11:21:56;;;;;;;0.80;0.80;;;;;;;;;;5064050;27;89089;-54
2022/12/23 11:24:25;;;;;;;0.53;0.53;;;;;;;;;;5063883;27;88961;-54
2022/12/23 11:26:59;;;;;;;1.77;0.60;;;;;;;;;;5064256;27;87500;-54
2022/12/23 11:29:29;;;;;;;0.50;0.50;;;;;;;;;;5064276;27;87030;-55
2022/12/23 11:31:58;;;;;;;1.00;0.67;;;;;;;;;;5064312;27;88222;-54
2022/12/23 11:34:27;;;;;;;0.70;0.57;;;;;;;;;;5064376;27;87963;-54
2022/12/23 11:36:55;;;;;;;0.47;0.40;;;;;;;;;;5064105;27;87213;-54
2022/12/23 11:39:32;;;;;;;0.50;0.50;;;;;;;;;;5064439;27;86982;-54
2022/12/23 11:42:05;;;;;;;0.50;0.50;;;;;;;;;;5063656;27;90096;-54
2022/12/23 11:44:35;;;;;;;1.30;0.67;;;;;;;;;;5064025;27;90031;-54
2022/12/23 11:47:19;;;;;;;0.47;0.47;;;;;;;;;;5064534;27;86997;-54
2022/12/23 11:49:48;;;;;;;0.40;0.40;;;;;;;;;;5064201;27;86884;-54
2022/12/23 11:52:17;;;;;;;0.40;0.40;;;;;;;;;;5063381;27;88798;-54
2022/12/23 11:54:49;;;;;;;0.77;0.40;;;;;;;;;;5063392;27;88905;-56
2022/12/23 11:57:22;;;;;;;1.60;0.63;;;;;;;;;;5063981;27;86887;-54
2022/12/23 11:59:51;;;;;;;0.40;0.40;;;;;;;;;;5063052;27;86302;-55
2022/12/23 12:02:22;;;;;;;3.37;0.47;;;;;;;;;;5063226;27;88098;-55
2022/12/23 12:04:53;;;;;;;0.77;0.67;;;;;;;;;;5063405;27;88332;-55
2022/12/23 12:07:21;;;;;;;2.23;0.50;;;;;;;;;;5063205;27;87872;-55
2022/12/23 12:09:50;;;;;;;2.80;0.70;;;;;;;;;;5063889;27;87107;-54
2022/12/23 12:12:19;;;;;;;0.43;0.43;;;;;;;;;;5063587;27;87897;-54
2022/12/23 12:14:49;;;;;;;1.43;0.80;;;;;;;;;;5063535;27;87773;-54
2022/12/23 12:17:18;;;;;;;0.83;0.67;;;;;;;;;;5063794;27;86901;-55
2022/12/23 12:19:52;;;;;;;2.13;0.60;;;;;;;;;;5063799;27;86740;-55
2022/12/23 12:22:23;;;;;;;1.13;0.80;;;;;;;;;;5063055;27;88014;-55
2022/12/23 12:24:53;;;;;;;1.23;0.70;;;;;;;;;;5063204;27;88919;-55
2022/12/23 12:27:21;;;;;;;1.70;1.00;;;;;;;;;;5063255;27;86902;-55
2022/12/23 12:29:51;;;;;;;1.03;0.80;;;;;;;;;;5062923;27;87013;-55
2022/12/23 12:32:20;;;;;;;0.93;0.73;;;;;;;;;;5062707;27;90356;-54
2022/12/23 12:34:52;;;;;;;1.27;1.17;;;;;;;;;;5063032;27;89966;-55
2022/12/23 12:37:22;;;;;;;1.33;1.10;;;;;;;;;;5063051;27;86819;-56
2022/12/23 12:39:52;;;;;;;1.50;1.10;;;;;;;;;;5063018;27;86856;-56
2022/12/23 12:42:21;;;;;;;1.23;0.63;;;;;;;;;;5062449;27;89029;-55
2022/12/23 12:44:52;;;;;;;2.60;1.10;;;;;;;;;;5062720;27;88014;-54
2022/12/23 12:47:22;;;;;;;1.17;0.63;;;;;;;;;;5063547;27;87041;-57
2022/12/23 12:50:14;;;;;;;1.10;0.80;;;;;;;;;;5063297;27;86285;-56
2022/12/23 12:52:43;;;;;;;2.17;1.33;;;;;;;;;;5062541;27;88508;-57
2022/12/23 12:55:15;;;;;;;0.70;0.67;;;;;;;;;;5062892;27;87828;-56
2022/12/23 12:57:43;;;;;;;1.50;0.90;;;;;;;;;;5062285;27;87927;-56
2022/12/23 13:00:14;;;;;;;0.80;0.80;;;;;;;;;;5062907;27;87043;-55
2022/12/23 13:02:47;;;;;;;1.53;1.00;;;;;;;;;;5062877;27;89234;-55
2022/12/23 13:05:29;;;;;;;1.03;0.77;;;;;;;;;;5062808;27;88907;-54
2022/12/23 13:08:02;;;;;;;1.23;0.70;;;;;;;;;;5063162;27;87025;-54
2022/12/23 13:10:34;;;;;;;1.80;1.00;;;;;;;;;;5062714;27;87066;-55
2022/12/23 13:13:04;;;;;;;0.93;0.90;;;;;;;;;;5062875;27;88990;-54
2022/12/23 13:15:33;;;;;;;1.27;0.90;;;;;;;;;;5062646;27;88990;-54
2022/12/23 13:18:06;;;;;;;1.70;0.73;;;;;;;;;;5062917;27;86957;-54
2022/12/23 13:20:37;;;;;;;0.60;0.60;;;;;;;;;;5062716;27;86919;-54
2022/12/23 13:23:06;;;;;;;0.87;0.83;;;;;;;;;;5061360;27;90150;-54
2022/12/23 13:25:56;;;;;;;0.77;0.67;;;;;;;;;;5062005;27;88340;-54
2022/12/23 13:28:29;;;;;;;1.60;0.73;;;;;;;;;;5062750;27;86736;-55
2022/12/23 13:30:59;;;;;;;1.17;0.83;;;;;;;;;;5062864;27;86995;-54
2022/12/23 13:33:28;;;;;;;0.80;0.80;;;;;;;;;;5062499;27;88202;-54
2022/12/23 13:36:02;;;;;;;1.47;1.00;;;;;;;;;;5061805;27;88794;-54
2022/12/23 13:38:44;;;;;;;2.20;1.07;;;;;;;;;;5062130;27;86990;-55
2022/12/23 13:41:15;;;;;;;2.83;0.80;;;;;;;;;;5062770;27;86182;-54
2022/12/23 13:43:44;;;;;;;0.83;0.80;;;;;;;;;;5062217;27;89061;-55
2022/12/23 13:46:15;;;;;;;1.60;0.93;;;;;;;;;;5062000;27;89112;-55
2022/12/23 13:48:44;;;;;;;1.87;1.00;;;;;;;;;;5062014;27;87877;-54
2022/12/23 13:51:15;;;;;;;3.70;0.87;;;;;;;;;;5062079;27;87054;-55
2022/12/23 13:53:48;;;;;;;1.97;1.03;;;;;;;;;;5061384;27;89071;-54
2022/12/23 13:56:19;;;;;;;1.10;1.00;;;;;;;;;;5061929;27;87794;-55
2022/12/23 13:58:48;;;;;;;1.30;1.13;;;;;;;;;;5062511;27;86971;-54
2022/12/23 14:01:20;;;;;;;0.80;0.80;;;;;;;;;;5062134;27;87030;-54
2022/12/23 14:03:49;;;;;;;2.57;1.20;;;;;;;;;;5062139;27;88079;-54
2022/12/23 14:06:42;;;;;;;1.03;0.93;;;;;;;;;;5061593;27;87802;-54
2022/12/23 14:09:13;;;;;;;0.63;0.60;;;;;;;;;;5061481;27;86979;-54
2022/12/23 14:11:41;;;;;;;6.13;1.53;;;;;;;;;;5061624;27;86917;-54
2022/12/23 14:14:15;;;;;;;1.40;0.67;;;;;;;;;;5061643;27;90040;-56
2022/12/23 14:16:47;;;;;;;0.90;0.77;;;;;;;;;;5061950;27;89941;-57
2022/12/23 14:19:25;;;;;;;2.40;0.80;;;;;;;;;;5062086;27;86821;-56
2022/12/23 14:21:59;;;;;;;1.13;0.70;;;;;;;;;;5061423;27;86931;-56
2022/12/23 14:24:31;;;;;;;3.07;0.50;;;;;;;;;;5064456;27;89328;-56
2022/12/23 14:27:13;;;;;;;1.27;1.17;;;;;;;;;;5065779;27;87507;-56
2022/12/23 14:29:45;;;;;;;0.90;0.90;;;;;;;;;;5065656;27;86894;-56
2022/12/23 14:32:19;;;;;;;1.13;0.87;;;;;;;;;;5065782;27;86088;-54
2022/12/23 14:35:02;;;;;;;0.97;0.73;;;;;;;;;;5065302;27;88114;-57
2022/12/23 14:37:35;;;;;;;1.03;0.67;;;;;;;;;;5064551;27;88469;-56
2022/12/23 14:40:22;;;;;;;2.37;1.10;;;;;;;;;;5064143;27;88082;-56
2022/12/23 14:42:57;;;;;;;1.00;0.60;;;;;;;;;;5064274;27;86913;-56
2022/12/23 14:45:28;;;;;;;0.77;0.67;;;;;;;;;;5064609;27;89224;-56
2022/12/23 14:47:57;;;;;;;0.63;0.63;;;;;;;;;;5064719;27;87100;-57
2022/12/23 14:50:34;;;;;;;1.30;1.20;;;;;;;;;;5065558;27;87006;-56
2022/12/23 14:53:04;;;;;;;1.13;1.03;;;;;;;;;;5065128;27;87015;-56
2022/12/23 14:55:45;;;;;;;0.97;0.73;;;;;;;;;;5064798;27;89248;-57
2022/12/23 14:58:32;;;;;;;0.90;0.47;;;;;;;;;;5065189;27;88971;-56
2022/12/23 15:01:02;;;;;;;0.70;0.70;;;;;;;;;;5064543;27;86868;-56
2022/12/23 15:03:31;;;;;;;1.70;1.20;;;;;;;;;;5065028;27;86688;-57
2022/12/23 15:05:59;;;;;;;0.67;0.67;;;;;;;;;;5063865;27;89184;-56
2022/12/23 15:08:30;;;;;;;0.90;0.70;;;;;;;;;;5064541;27;88519;-55
2022/12/23 15:10:59;;;;;;;2.37;1.17;;;;;;;;;;5065063;27;87466;-54
2022/12/23 15:13:27;;;;;;;1.17;0.90;;;;;;;;;;5064373;27;87481;-55
2022/12/23 15:15:56;;;;;;;1.07;0.87;;;;;;;;;;5064053;27;87009;-54
2022/12/23 15:18:29;;;;;;;1.70;1.20;;;;;;;;;;5064121;27;88943;-54
2022/12/23 15:21:01;;;;;;;0.70;0.70;;;;;;;;;;5064497;27;87069;-54
2022/12/23 15:23:32;;;;;;;1.90;1.37;;;;;;;;;;5064633;27;86581;-54
2022/12/23 15:26:00;;;;;;;0.77;0.77;;;;;;;;;;5063740;27;89024;-56
2022/12/23 15:28:32;;;;;;;0.87;0.80;;;;;;;;;;5063955;27;87765;-56